Time;durP1;ratioP1;P1;durP2;ratioP2;P2;SDS_P1;SDS_P2;PMS_P1;PMS_P2;Temp;Humidity;BMP_temperature;BMP_pressure;BME280_temperature;BME280_humidity;BME280_pressure;Samples;Min_cycle;Max_cycle;Signal;HPM_P1;HPM_P2
2022/10/23 00:00:22;;;;;;;3.72;1.67;;;;;;;10.70;100.00;98846.63;5017277;28;20091;-64
2022/10/23 00:02:52;;;;;;;3.85;1.75;;;;;;;10.62;100.00;98852.22;5018645;28;22473;-64
2022/10/23 00:05:19;;;;;;;8.45;2.05;;;;;;;10.54;100.00;98842.41;5027167;28;20120;-64
2022/10/23 00:07:52;;;;;;;7.60;2.22;;;;;;;10.61;100.00;98851.41;5022365;28;20084;-64
2022/10/23 00:10:19;;;;;;;12.35;2.40;;;;;;;10.67;100.00;98841.63;5026457;28;20374;-64
2022/10/23 00:12:45;;;;;;;4.72;2.33;;;;;;;10.72;100.00;98836.44;5023526;28;20453;-64
2022/10/23 00:15:11;;;;;;;4.82;2.05;;;;;;;10.66;100.00;98831.81;5024911;28;20037;-64
2022/10/23 00:17:37;;;;;;;10.48;2.25;;;;;;;10.66;100.00;98831.81;5023423;28;20163;-64
2022/10/23 00:20:05;;;;;;;7.43;2.45;;;;;;;10.73;100.00;98836.22;5022788;28;20026;-64
2022/10/23 00:22:31;;;;;;;8.33;2.13;;;;;;;10.93;100.00;98832.75;5021204;28;20119;-64
2022/10/23 00:24:56;;;;;;;7.28;1.85;;;;;;;10.85;100.00;98830.25;5020595;28;20291;-64
2022/10/23 00:27:21;;;;;;;4.13;1.77;;;;;;;10.77;100.00;98822.28;5015278;28;20495;-64
2022/10/23 00:29:47;;;;;;;10.27;1.70;;;;;;;10.69;100.00;98826.88;5024042;28;20106;-64
2022/10/23 00:32:12;;;;;;;4.03;1.70;;;;;;;10.63;100.00;98822.25;5029561;28;20058;-64
2022/10/23 00:34:38;;;;;;;4.68;1.90;;;;;;;10.51;100.00;98823.88;5021144;28;20029;-64
2022/10/23 00:37:03;;;;;;;6.63;2.08;;;;;;;10.55;100.00;98813.47;5023171;28;20048;-64
2022/10/23 00:39:28;;;;;;;5.10;1.85;;;;;;;10.55;100.00;98819.72;5024920;28;20033;-64
2022/10/23 00:41:54;;;;;;;8.60;2.10;;;;;;;10.60;100.00;98819.13;5028239;28;20039;-65
2022/10/23 00:44:19;;;;;;;4.47;2.00;;;;;;;10.46;100.00;98823.66;5029298;28;20022;-64
2022/10/23 00:46:45;;;;;;;3.17;1.80;;;;;;;10.28;100.00;98814.22;5026782;28;20029;-64
2022/10/23 00:49:11;;;;;;;9.48;2.10;;;;;;;10.26;100.00;98815.41;5036546;28;20392;-65
2022/10/23 00:51:47;;;;;;;3.78;1.80;;;;;;;10.22;100.00;98816.88;5024031;28;20021;-64
2022/10/23 00:54:15;;;;;;;5.93;2.10;;;;;;;10.19;100.00;98812.69;5018146;28;20025;-65
2022/10/23 00:56:43;;;;;;;4.22;2.05;;;;;;;10.15;100.00;98814.13;5022860;28;20033;-64
2022/10/23 00:59:09;;;;;;;5.70;2.35;;;;;;;10.03;100.00;98813.88;5019074;28;20030;-64
2022/10/23 01:01:36;;;;;;;4.78;2.33;;;;;;;9.95;100.00;98807.75;5019552;28;20036;-64
2022/10/23 01:04:04;;;;;;;4.63;2.45;;;;;;;9.96;100.00;98823.78;5020004;28;20473;-64
2022/10/23 01:06:41;;;;;;;4.10;2.20;;;;;;;9.94;100.00;98814.22;5024338;28;20026;-64
2022/10/23 01:09:19;;;;;;;3.40;2.20;;;;;;;9.86;100.00;98820.63;5023725;28;20100;-64
2022/10/23 01:11:53;;;;;;;6.15;2.28;;;;;;;9.85;100.00;98819.78;5022712;28;20022;-64
2022/10/23 01:14:31;;;;;;;6.28;3.00;;;;;;;9.86;100.00;98807.09;5028157;28;20044;-64
2022/10/23 01:17:25;;;;;;;6.47;2.20;;;;;;;9.84;100.00;98822.66;5028640;28;20029;-65
2022/10/23 01:20:28;;;;;;;6.38;2.38;;;;;;;9.90;100.00;98818.34;5013921;28;20053;-63
2022/10/23 01:23:05;;;;;;;7.63;2.55;;;;;;;9.93;100.00;98816.09;5020048;28;20476;-64
2022/10/23 01:25:57;;;;;;;10.20;2.08;;;;;;;9.90;100.00;98811.06;5025587;28;20416;-64
2022/10/23 01:28:49;;;;;;;11.15;3.55;;;;;;;9.88;100.00;98800.47;5023595;28;20049;-64
2022/10/23 01:31:26;;;;;;;4.75;2.40;;;;;;;9.87;100.00;98798.78;5021378;28;20473;-64
2022/10/23 01:34:05;;;;;;;13.35;2.38;;;;;;;9.90;100.00;98794.00;5018533;28;20045;-64
2022/10/23 01:36:32;;;;;;;4.82;2.35;;;;;;;9.86;100.00;98782.78;5028081;28;20091;-64
2022/10/23 01:39:03;;;;;;;6.38;2.50;;;;;;;9.94;100.00;98801.53;5015927;28;20056;-64
2022/10/23 01:41:41;;;;;;;5.90;2.50;;;;;;;9.96;100.00;98804.06;5026386;28;20033;-64
2022/10/23 01:44:25;;;;;;;9.38;2.38;;;;;;;9.90;100.00;98802.94;5030701;28;20021;-64
2022/10/23 01:46:52;;;;;;;5.85;2.20;;;;;;;9.95;100.00;98810.47;5021925;28;20029;-64
2022/10/23 01:49:19;;;;;;;11.25;2.47;;;;;;;9.92;100.00;98805.47;5022415;28;20053;-64
2022/10/23 01:51:55;;;;;;;4.78;2.38;;;;;;;9.91;100.00;98801.09;5017091;28;20034;-64
2022/10/23 01:54:25;;;;;;;9.77;2.65;;;;;;;9.81;100.00;98793.34;5031806;28;20064;-64
2022/10/23 01:56:51;;;;;;;2.83;2.10;;;;;;;9.83;100.00;98805.63;5025612;28;20029;-64
2022/10/23 01:59:34;;;;;;;6.03;2.10;;;;;;;9.81;100.00;98796.88;5023327;28;20029;-63
2022/10/23 02:02:00;;;;;;;3.72;1.85;;;;;;;9.78;100.00;98801.84;5025235;28;20043;-65
2022/10/23 02:04:32;;;;;;;5.68;2.15;;;;;;;9.80;100.00;98797.09;5018231;28;20021;-64
2022/10/23 02:06:58;;;;;;;4.97;2.40;;;;;;;9.75;100.00;98808.50;5030403;28;20032;-64
2022/10/23 02:09:24;;;;;;;11.38;2.33;;;;;;;9.74;100.00;98803.28;5026463;28;20231;-64
2022/10/23 02:12:16;;;;;;;3.92;2.03;;;;;;;9.66;100.00;98794.28;5021792;28;20026;-63
2022/10/23 02:15:11;;;;;;;5.38;1.80;;;;;;;9.62;100.00;98790.31;5027555;28;20033;-64
2022/10/23 02:18:32;;;;;;;6.20;1.73;;;;;;;9.60;100.00;98796.97;5024227;28;20030;-64
2022/10/23 02:23:51;;;;;;;4.68;1.92;;;;;;;9.41;100.00;98775.00;5074775;22;20041;-77
2022/10/23 02:26:24;;;;;;;8.25;1.90;;;;;;;9.78;100.00;98775.66;5065293;28;20024;-77
2022/10/23 02:28:56;;;;;;;4.85;1.88;;;;;;;9.91;100.00;98738.97;5058862;28;20013;-76
2022/10/23 02:31:22;;;;;;;5.43;2.20;;;;;;;10.04;100.00;98737.13;5048874;28;20076;-77
2022/10/23 02:33:48;;;;;;;7.80;1.95;;;;;;;9.84;100.00;98726.22;5047236;28;20013;-77
2022/10/23 02:36:14;;;;;;;7.07;2.22;;;;;;;9.75;100.00;98749.06;5032224;28;20091;-78
2022/10/23 02:38:42;;;;;;;2.28;1.90;;;;;;;9.61;100.00;98752.69;5040272;28;20025;-77
2022/10/23 02:41:26;;;;;;;4.38;1.98;;;;;;;9.54;100.00;98757.25;5030650;28;20022;-77
2022/10/23 02:43:57;;;;;;;5.25;2.08;;;;;;;9.47;100.00;98759.06;5040454;28;20025;-77
2022/10/23 02:46:35;;;;;;;5.63;2.08;;;;;;;9.42;100.00;98756.94;5026395;28;20029;-78
2022/10/23 02:49:11;;;;;;;5.68;2.22;;;;;;;9.37;100.00;98754.00;5030361;28;20025;-76
2022/10/23 02:51:56;;;;;;;6.70;2.30;;;;;;;9.37;100.00;98759.41;5022396;28;20026;-76
2022/10/23 02:54:39;;;;;;;4.20;1.80;;;;;;;9.35;100.00;98740.72;5041000;28;20565;-79
2022/10/23 02:57:29;;;;;;;3.88;2.00;;;;;;;9.44;100.00;98730.59;5031172;28;20056;-77
2022/10/23 02:59:57;;;;;;;5.13;1.95;;;;;;;9.50;100.00;98737.06;5029489;28;20425;-76
2022/10/23 03:02:40;;;;;;;9.30;2.25;;;;;;;9.45;100.00;98729.53;5026095;28;20028;-77
2022/10/23 03:05:10;;;;;;;4.50;2.33;;;;;;;9.43;100.00;98729.75;5024937;28;20044;-77
2022/10/23 03:07:38;;;;;;;5.88;2.10;;;;;;;9.38;100.00;98721.41;5040101;28;20025;-77
2022/10/23 03:10:04;;;;;;;6.60;1.90;;;;;;;9.37;100.00;98725.13;5021172;28;20034;-77
2022/10/23 03:12:29;;;;;;;8.50;2.20;;;;;;;9.46;100.00;98712.31;5025337;28;20044;-77
2022/10/23 03:14:54;;;;;;;6.45;2.20;;;;;;;9.47;100.00;98702.34;5034795;28;20475;-77
2022/10/23 03:17:20;;;;;;;4.50;2.22;;;;;;;9.52;100.00;98710.69;5031457;28;20033;-77
2022/10/23 03:19:45;;;;;;;6.20;1.92;;;;;;;9.61;100.00;98725.69;5022444;28;20045;-77
2022/10/23 03:22:10;;;;;;;8.68;2.08;;;;;;;9.46;100.00;98700.66;5029883;28;20012;-77
2022/10/23 03:24:36;;;;;;;3.85;2.17;;;;;;;9.53;100.00;98712.34;5027591;28;20513;-77
2022/10/23 03:27:01;;;;;;;4.90;2.03;;;;;;;9.66;100.00;98717.81;5022765;28;20483;-77
2022/10/23 03:29:26;;;;;;;7.00;2.50;;;;;;;9.55;100.00;98683.28;5024248;28;20083;-77
2022/10/23 03:31:52;;;;;;;6.20;1.98;;;;;;;9.60;100.00;98708.66;5029516;28;20029;-79
2022/10/23 03:34:18;;;;;;;4.60;2.05;;;;;;;9.52;100.00;98700.72;5013378;28;20083;-77
2022/10/23 03:36:43;;;;;;;5.25;2.42;;;;;;;9.52;100.00;98694.47;5029399;28;20025;-77
2022/10/23 03:39:09;;;;;;;3.85;2.25;;;;;;;9.49;100.00;98689.50;5027578;28;20438;-77
2022/10/23 03:41:34;;;;;;;3.88;2.00;;;;;;;9.36;100.00;98682.97;5017022;28;20028;-78
2022/10/23 03:43:59;;;;;;;7.07;2.20;;;;;;;9.55;100.00;98710.28;5025523;28;20039;-76
2022/10/23 03:46:25;;;;;;;6.00;1.88;;;;;;;9.63;100.00;98702.00;5014719;28;20109;-77
2022/10/23 03:48:50;;;;;;;7.28;2.58;;;;;;;9.49;100.00;98678.69;5025973;28;20026;-77
2022/10/23 03:51:15;;;;;;;4.93;2.40;;;;;;;9.47;100.00;98680.75;5022358;28;20505;-77
2022/10/23 03:53:41;;;;;;;4.93;2.22;;;;;;;9.53;100.00;98690.75;5026616;28;20407;-77
2022/10/23 03:56:06;;;;;;;9.15;2.45;;;;;;;9.72;100.00;98713.47;5029700;28;20113;-77
2022/10/23 03:58:31;;;;;;;4.13;2.13;;;;;;;9.56;100.00;98695.75;5032370;28;20033;-77
2022/10/23 04:00:57;;;;;;;6.38;2.28;;;;;;;9.52;100.00;98687.22;5024692;28;20021;-77
2022/10/23 04:03:22;;;;;;;3.47;2.20;;;;;;;9.36;100.00;98664.06;5016543;28;20026;-77
2022/10/23 04:05:48;;;;;;;6.03;2.33;;;;;;;9.49;100.00;98703.00;5037365;28;20029;-77
2022/10/23 04:08:13;;;;;;;4.78;2.28;;;;;;;9.44;100.00;98700.88;5021101;28;20681;-78
2022/10/23 04:10:38;;;;;;;3.78;2.28;;;;;;;9.48;100.00;98701.31;5031282;28;20372;-77
2022/10/23 04:13:04;;;;;;;4.53;2.35;;;;;;;9.32;100.00;98680.84;5028935;28;20049;-77
2022/10/23 04:15:29;;;;;;;7.03;2.22;;;;;;;9.37;100.00;98698.13;5025599;28;20036;-77
2022/10/23 04:17:54;;;;;;;3.88;1.83;;;;;;;9.27;100.00;98703.03;5030692;28;20026;-77
2022/10/23 04:20:19;;;;;;;3.50;2.15;;;;;;;9.18;100.00;98701.53;5026646;28;20018;-77
2022/10/23 04:22:45;;;;;;;5.43;2.55;;;;;;;9.02;100.00;98696.44;5025593;28;20028;-77
2022/10/23 04:25:10;;;;;;;3.63;2.08;;;;;;;8.70;100.00;98656.34;5026816;28;20083;-78
2022/10/23 04:27:36;;;;;;;5.70;2.20;;;;;;;8.93;100.00;98707.38;5037998;28;20030;-77
2022/10/23 04:30:02;;;;;;;7.95;2.90;;;;;;;8.90;100.00;98702.34;5032914;28;20040;-77
2022/10/23 04:32:27;;;;;;;4.20;2.58;;;;;;;8.87;100.00;98683.84;5032011;28;20024;-78
2022/10/23 04:34:53;;;;;;;5.25;2.50;;;;;;;9.06;100.00;98693.13;5033123;28;20387;-77
2022/10/23 04:37:18;;;;;;;7.43;2.15;;;;;;;9.18;100.00;98705.06;5025890;28;20026;-78
2022/10/23 04:39:43;;;;;;;7.65;2.10;;;;;;;9.06;100.00;98697.69;5037155;28;20029;-77
2022/10/23 04:42:09;;;;;;;8.38;2.17;;;;;;;9.06;100.00;98705.78;5021327;28;20017;-77
2022/10/23 04:44:34;;;;;;;11.23;2.05;;;;;;;8.95;100.00;98694.50;5032471;28;20028;-77
2022/10/23 04:46:59;;;;;;;4.80;2.28;;;;;;;9.10;100.00;98718.72;5028988;28;20487;-77
2022/10/23 04:49:25;;;;;;;7.53;2.55;;;;;;;8.76;100.00;98658.25;5028278;28;20078;-77
2022/10/23 04:51:50;;;;;;;4.53;2.33;;;;;;;9.02;100.00;98710.75;5035524;28;20523;-77
2022/10/23 04:54:15;;;;;;;8.23;2.20;;;;;;;8.93;100.00;98715.47;5035354;28;20025;-77
2022/10/23 04:56:41;;;;;;;6.90;2.60;;;;;;;8.68;100.00;98666.50;5027124;28;20030;-77
2022/10/23 04:59:06;;;;;;;4.07;2.40;;;;;;;8.89;100.00;98708.78;5022546;28;20092;-77
2022/10/23 05:01:31;;;;;;;8.60;2.58;;;;;;;8.90;100.00;98721.25;5013715;28;20395;-76
2022/10/23 05:03:57;;;;;;;5.88;2.50;;;;;;;8.80;100.00;98701.84;5030738;28;20033;-77
2022/10/23 05:06:22;;;;;;;5.07;2.53;;;;;;;8.82;100.00;98682.78;5032839;28;20056;-77
2022/10/23 05:08:47;;;;;;;7.13;2.35;;;;;;;8.77;100.00;98675.25;5027880;28;20101;-77
2022/10/23 05:11:12;;;;;;;7.35;3.22;;;;;;;8.88;100.00;98703.56;5028776;28;20094;-77
2022/10/23 05:13:38;;;;;;;6.80;2.08;;;;;;;8.94;100.00;98717.13;5020528;28;20065;-77
2022/10/23 05:16:03;;;;;;;10.02;2.80;;;;;;;8.77;100.00;98692.28;5027582;28;20487;-77
2022/10/23 05:18:36;;;;;;;9.65;2.50;;;;;;;8.95;100.00;98702.59;5030446;28;20368;-74
2022/10/23 05:21:06;;;;;;;6.93;2.53;;;;;;;9.05;100.00;98685.25;5022747;28;20034;-77
2022/10/23 05:23:35;;;;;;;7.05;2.42;;;;;;;9.19;100.00;98676.19;5028956;28;20120;-77
2022/10/23 05:26:02;;;;;;;6.05;2.47;;;;;;;9.23;100.00;98682.88;5016052;28;20029;-77
2022/10/23 05:28:27;;;;;;;8.05;2.20;;;;;;;9.24;100.00;98692.63;5021187;28;20487;-77
2022/10/23 05:30:53;;;;;;;12.27;2.55;;;;;;;9.13;100.00;98679.69;5039994;28;20075;-77
2022/10/23 05:33:18;;;;;;;6.15;2.45;;;;;;;8.96;100.00;98644.94;5033061;28;20659;-77
2022/10/23 05:35:44;;;;;;;8.18;2.30;;;;;;;9.08;100.00;98665.97;5026031;28;20471;-76
2022/10/23 05:38:10;;;;;;;11.57;3.05;;;;;;;9.04;100.00;98656.56;5021416;28;20365;-77
2022/10/23 05:40:36;;;;;;;7.90;3.15;;;;;;;9.15;100.00;98656.88;5035114;28;20032;-77
2022/10/23 05:43:01;;;;;;;6.15;3.55;;;;;;;9.21;100.00;98671.44;5030853;28;20424;-77
2022/10/23 05:45:26;;;;;;;8.32;3.85;;;;;;;9.17;100.00;98654.00;5029669;28;20036;-77
2022/10/23 05:47:53;;;;;;;4.32;2.88;;;;;;;9.33;100.00;98680.66;5049251;22;20042;-62
2022/10/23 05:50:18;;;;;;;3.25;2.40;;;;;;;9.39;100.00;98677.16;5045917;28;20025;-62
2022/10/23 05:52:47;;;;;;;8.32;2.97;;;;;;;9.37;100.00;98676.53;5048918;28;20148;-62
2022/10/23 05:55:14;;;;;;;7.00;2.63;;;;;;;9.36;100.00;98688.38;5029251;28;20059;-63
2022/10/23 05:57:40;;;;;;;9.13;5.03;;;;;;;9.37;100.00;98679.22;5026491;28;20025;-62
2022/10/23 06:00:06;;;;;;;18.60;4.45;;;;;;;9.37;100.00;98671.13;5026656;28;20085;-62
2022/10/23 06:02:32;;;;;;;3.90;2.10;;;;;;;9.41;100.00;98676.97;5025732;28;20068;-62
2022/10/23 06:04:57;;;;;;;6.03;2.00;;;;;;;9.49;100.00;98667.88;5029868;28;20029;-62
2022/10/23 06:07:27;;;;;;;6.35;2.22;;;;;;;9.42;100.00;98663.25;5025027;28;20074;-62
2022/10/23 06:09:53;;;;;;;10.02;2.10;;;;;;;9.48;100.00;98666.19;5026483;28;20024;-62
2022/10/23 06:12:21;;;;;;;4.10;2.22;;;;;;;9.61;100.00;98655.47;5028783;28;20021;-63
2022/10/23 06:14:48;;;;;;;10.48;2.90;;;;;;;9.76;100.00;98652.63;5023278;28;20128;-64
2022/10/23 06:17:14;;;;;;;6.53;2.50;;;;;;;9.91;100.00;98630.84;5028551;28;20032;-62
2022/10/23 06:19:40;;;;;;;9.85;2.85;;;;;;;10.00;100.00;98637.72;5027416;28;20025;-64
2022/10/23 06:22:05;;;;;;;8.85;2.55;;;;;;;9.81;100.00;98623.13;5021141;28;20026;-64
2022/10/23 06:24:31;;;;;;;5.40;2.58;;;;;;;9.96;100.00;98637.31;5019249;28;20393;-64
2022/10/23 06:26:57;;;;;;;3.97;2.35;;;;;;;10.15;100.00;98630.28;5026736;28;20048;-65
2022/10/23 06:29:23;;;;;;;5.38;2.78;;;;;;;10.19;100.00;98636.97;5026958;28;20148;-65
2022/10/23 06:31:48;;;;;;;3.17;2.20;;;;;;;10.17;100.00;98630.91;5028156;28;22562;-64
2022/10/23 06:34:14;;;;;;;5.13;2.55;;;;;;;10.26;100.00;98629.69;5034209;28;20111;-65
2022/10/23 06:36:39;;;;;;;5.32;3.05;;;;;;;10.41;100.00;98623.28;5032709;28;20393;-64
2022/10/23 06:39:05;;;;;;;14.50;3.25;;;;;;;10.36;100.00;98618.50;5029540;28;20040;-64
2022/10/23 06:41:31;;;;;;;5.78;3.63;;;;;;;10.46;100.00;98616.22;5049140;28;20469;-64
2022/10/23 06:43:56;;;;;;;4.93;3.15;;;;;;;10.28;100.00;98597.06;5025866;28;20361;-65
2022/10/23 06:46:23;;;;;;;4.53;2.17;;;;;;;10.58;100.00;98611.00;5027092;28;20033;-64
2022/10/23 06:48:48;;;;;;;4.95;2.35;;;;;;;10.71;100.00;98616.41;5025665;28;20032;-64
2022/10/23 06:51:16;;;;;;;5.65;2.03;;;;;;;10.88;100.00;98607.88;5029376;28;20393;-64
2022/10/23 06:53:42;;;;;;;3.38;1.50;;;;;;;11.14;100.00;98613.25;5019003;28;20071;-64
2022/10/23 06:56:09;;;;;;;10.27;1.88;;;;;;;11.44;100.00;98601.09;5022798;28;20028;-65
2022/10/23 06:58:37;;;;;;;5.82;1.80;;;;;;;11.46;100.00;98607.94;5045424;28;20029;-64
2022/10/23 07:01:06;;;;;;;8.38;1.63;;;;;;;11.54;100.00;98610.41;5031463;28;20086;-64
2022/10/23 07:03:33;;;;;;;2.65;1.65;;;;;;;11.56;100.00;98605.63;5028947;28;20037;-64
2022/10/23 07:06:00;;;;;;;4.32;1.50;;;;;;;11.73;100.00;98595.13;5026477;28;20108;-62
2022/10/23 07:08:27;;;;;;;5.70;2.17;;;;;;;12.36;100.00;98594.34;5027770;28;20064;-62
2022/10/23 07:10:53;;;;;;;4.05;2.08;;;;;;;13.10;100.00;98573.66;5021882;28;20031;-61
2022/10/23 07:13:18;;;;;;;6.30;2.30;;;;;;;13.33;100.00;98573.00;5025964;28;20683;-64
2022/10/23 07:15:44;;;;;;;7.95;2.53;;;;;;;13.38;100.00;98570.41;5031027;28;20029;-64
2022/10/23 07:18:14;;;;;;;3.90;1.88;;;;;;;13.13;100.00;98573.19;5029108;28;20029;-64
2022/10/23 07:20:42;;;;;;;6.38;2.55;;;;;;;13.31;100.00;98575.13;5021783;28;20029;-64
2022/10/23 07:23:10;;;;;;;5.25;1.60;;;;;;;13.41;100.00;98573.75;5024438;28;20433;-64
2022/10/23 07:25:36;;;;;;;2.50;1.65;;;;;;;13.23;100.00;98577.25;5028001;28;20128;-64
2022/10/23 07:28:03;;;;;;;5.75;1.92;;;;;;;13.23;100.00;98586.25;5027338;28;20041;-64
2022/10/23 07:30:29;;;;;;;6.90;2.55;;;;;;;13.48;100.00;98575.31;5026712;28;20038;-65
2022/10/23 07:32:54;;;;;;;9.57;2.33;;;;;;;13.76;100.00;98573.94;5020351;28;20033;-64
2022/10/23 07:35:20;;;;;;;5.28;1.85;;;;;;;14.51;100.00;98583.50;5024165;28;20052;-64
2022/10/23 07:37:45;;;;;;;3.88;1.70;;;;;;;15.18;100.00;98583.22;5041455;28;20116;-64
2022/10/23 07:40:11;;;;;;;3.58;1.90;;;;;;;16.15;100.00;98582.47;5024442;28;20064;-64
2022/10/23 07:42:37;;;;;;;3.70;1.50;;;;;;;16.50;100.00;98579.53;5044284;28;20037;-64
2022/10/23 07:45:06;;;;;;;3.53;1.85;;;;;;;16.71;100.00;98591.63;5021508;28;20028;-65
2022/10/23 07:47:32;;;;;;;3.43;1.60;;;;;;;17.39;100.00;98591.56;5030596;28;20041;-65
2022/10/23 07:49:58;;;;;;;3.83;1.40;;;;;;;17.59;100.00;98591.84;5023539;28;20687;-63
2022/10/23 07:52:23;;;;;;;3.78;1.30;;;;;;;17.62;100.00;98596.81;5026269;28;20029;-64
2022/10/23 07:54:52;;;;;;;2.40;1.48;;;;;;;17.31;100.00;98596.41;5020908;28;20099;-64
2022/10/23 07:57:18;;;;;;;3.80;1.05;;;;;;;17.29;100.00;98593.09;5027680;28;20030;-65
2022/10/23 07:59:43;;;;;;;4.47;1.23;;;;;;;17.61;100.00;98599.81;5024864;28;20078;-64
2022/10/23 08:02:13;;;;;;;3.55;1.52;;;;;;;17.59;100.00;98600.06;5023446;28;20431;-61
2022/10/23 08:04:39;;;;;;;4.95;1.10;;;;;;;17.52;100.00;98604.88;5025057;28;20032;-62
2022/10/23 08:07:04;;;;;;;6.25;1.30;;;;;;;17.96;100.00;98610.38;5021118;28;20416;-62
2022/10/23 08:09:30;;;;;;;6.43;1.50;;;;;;;18.52;100.00;98610.13;5020314;28;20087;-64
2022/10/23 08:11:56;;;;;;;2.40;1.10;;;;;;;19.25;100.00;98603.06;5021636;28;20032;-61
2022/10/23 08:14:21;;;;;;;2.67;1.20;;;;;;;19.67;100.00;98601.38;5024092;28;20026;-62
2022/10/23 08:16:46;;;;;;;3.28;1.63;;;;;;;20.23;100.00;98601.59;5018135;28;20035;-62
2022/10/23 08:19:12;;;;;;;2.03;1.20;;;;;;;20.51;100.00;98582.94;5016631;28;20056;-62
2022/10/23 08:21:37;;;;;;;4.82;1.27;;;;;;;20.49;100.00;98582.41;5025755;28;20031;-62
2022/10/23 08:24:04;;;;;;;5.75;1.08;;;;;;;20.99;100.00;98580.78;5022781;28;20025;-62
2022/10/23 08:26:29;;;;;;;8.10;1.60;;;;;;;20.94;100.00;98583.53;5027051;28;20022;-62
2022/10/23 08:28:57;;;;;;;5.85;1.50;;;;;;;20.60;100.00;98575.03;5028840;28;20752;-62
2022/10/23 08:31:23;;;;;;;4.88;1.17;;;;;;;21.81;96.34;98583.31;5021470;28;20025;-62
2022/10/23 08:33:49;;;;;;;1.92;1.02;;;;;;;23.49;77.74;98577.66;5024167;28;20424;-62
2022/10/23 08:36:23;;;;;;;1.60;1.17;;;;;;;23.89;69.48;98575.53;5024947;28;20029;-64
2022/10/23 08:38:49;;;;;;;6.07;1.25;;;;;;;24.96;65.65;98567.56;5027590;28;20021;-64
2022/10/23 08:41:31;;;;;;;2.20;1.00;;;;;;;25.70;61.25;98554.53;5022514;28;20060;-62
2022/10/23 08:44:25;;;;;;;2.33;1.10;;;;;;;25.01;60.88;98542.56;5023752;28;20113;-66
2022/10/23 08:47:17;;;;;;;3.58;0.60;;;;;;;24.97;61.47;98538.75;5025058;28;20140;-64
2022/10/23 08:49:56;;;;;;;3.40;0.77;;;;;;;23.72;66.03;98543.69;5039609;28;20083;-61
2022/10/23 08:52:24;;;;;;;4.90;0.98;;;;;;;23.88;66.71;98540.72;5033877;28;20088;-61
2022/10/23 08:55:03;;;;;;;1.60;0.85;;;;;;;24.99;61.90;98542.84;5003927;28;20512;-63
2022/10/23 08:57:35;;;;;;;;;;;;;;;25.61;59.62;98533.41;5026432;28;20040;-62
2022/10/23 09:00:07;;;;;;;11.43;1.20;;;;;;;25.90;59.59;98535.84;5027621;28;19913;-61
2022/10/23 09:02:42;;;;;;;6.68;1.30;;;;;;;26.10;59.20;98535.41;5022343;28;20025;-58
2022/10/23 09:05:18;;;;;;;2.80;0.90;;;;;;;25.64;59.43;98527.25;5016963;28;20076;-58
2022/10/23 09:07:53;;;;;;;6.57;1.25;;;;;;;25.92;58.22;98526.09;5027653;28;20034;-59
2022/10/23 09:10:25;;;;;;;3.30;0.80;;;;;;;27.30;56.29;98517.16;5028856;28;20029;-59
2022/10/23 09:12:50;;;;;;;2.55;1.08;;;;;;;27.50;53.35;98514.94;5028359;28;20037;-59
2022/10/23 09:15:28;;;;;;;3.72;0.77;;;;;;;28.78;50.27;98525.69;5022441;28;20065;-59
2022/10/23 09:17:58;;;;;;;3.65;0.90;;;;;;;28.05;51.16;98528.31;5039693;28;20037;-59
2022/10/23 09:20:26;;;;;;;1.63;0.70;;;;;;;29.87;47.68;98513.19;5018737;28;20029;-59
2022/10/23 09:22:58;;;;;;;1.50;0.45;;;;;;;31.08;42.67;98507.69;5029194;28;20025;-60
2022/10/23 09:25:30;;;;;;;4.32;0.60;;;;;;;30.45;42.38;98518.19;5042766;28;20112;-59
2022/10/23 09:27:59;;;;;;;1.52;0.55;;;;;;;30.94;41.11;98513.63;5020022;28;20044;-57
2022/10/23 09:30:38;;;;;;;3.80;0.50;;;;;;;30.56;41.21;98533.34;5021905;28;20021;-59
2022/10/23 09:33:24;;;;;;;2.30;0.90;;;;;;;28.99;44.96;98531.38;5014815;28;20029;-59
2022/10/23 09:36:01;;;;;;;2.45;0.60;;;;;;;28.68;45.35;98525.22;5024071;28;20041;-59
2022/10/23 09:38:38;;;;;;;2.28;0.50;;;;;;;28.50;45.67;98524.44;5022747;28;20038;-59
2022/10/23 09:41:13;;;;;;;1.38;0.52;;;;;;;28.82;44.36;98507.19;5022996;28;20388;-59
2022/10/23 09:43:38;;;;;;;1.20;0.40;;;;;;;28.14;45.54;98489.41;5026420;28;20025;-59
2022/10/23 09:46:06;;;;;;;1.15;0.50;;;;;;;28.78;44.96;98497.03;5043653;28;20043;-58
2022/10/23 09:48:33;;;;;;;0.70;0.50;;;;;;;28.17;46.21;98492.34;5029165;28;20033;-58
2022/10/23 09:51:01;;;;;;;0.90;0.47;;;;;;;28.39;45.64;98487.75;5025310;28;20037;-58
2022/10/23 09:53:56;;;;;;;2.88;0.50;;;;;;;28.68;45.88;98480.69;5023872;28;20049;-58
2022/10/23 09:56:40;;;;;;;1.15;0.47;;;;;;;28.43;46.72;98474.81;5023840;28;20033;-58
2022/10/23 09:59:12;;;;;;;1.05;0.60;;;;;;;28.77;46.13;98456.44;5009543;28;20021;-58
2022/10/23 10:01:47;;;;;;;0.45;0.30;;;;;;;28.73;42.01;98464.63;5038679;28;20030;-56
2022/10/23 10:04:12;;;;;;;0.52;0.30;;;;;;;28.20;42.22;98465.84;5045471;28;20034;-57
2022/10/23 10:06:39;;;;;;;2.83;0.40;;;;;;;27.64;44.12;98470.31;5030784;28;20021;-57
2022/10/23 10:09:11;;;;;;;0.82;0.40;;;;;;;27.42;43.62;98476.81;5028355;28;20029;-59
2022/10/23 10:11:52;;;;;;;3.60;0.40;;;;;;;26.78;44.86;98480.78;5022872;28;20560;-57
2022/10/23 10:14:24;;;;;;;1.00;0.32;;;;;;;27.28;44.98;98477.78;5022238;28;20037;-59
2022/10/23 10:16:59;;;;;;;1.48;0.50;;;;;;;26.96;46.15;98478.91;5044035;28;20095;-58
2022/10/23 10:19:32;;;;;;;2.15;0.77;;;;;;;28.32;43.66;98488.25;5022713;28;20671;-58
2022/10/23 10:22:25;;;;;;;1.33;0.55;;;;;;;28.88;41.99;98499.47;5035745;28;20035;-58
2022/10/23 10:25:26;;;;;;;0.95;0.43;;;;;;;28.61;43.49;98493.16;5040111;28;20033;-57
2022/10/23 10:28:00;;;;;;;0.82;0.50;;;;;;;27.55;46.23;98495.34;5017932;28;20037;-57
2022/10/23 10:30:35;;;;;;;0.52;0.45;;;;;;;26.61;47.06;98489.81;5037143;28;20036;-57
2022/10/23 10:33:42;;;;;;;1.23;0.40;;;;;;;26.42;48.82;98483.63;5025822;28;20044;-61
2022/10/23 10:36:26;;;;;;;3.80;0.70;;;;;;;26.51;49.13;98472.56;5023547;28;20121;-61
2022/10/23 10:38:59;;;;;;;0.90;0.47;;;;;;;26.11;48.88;98481.59;5036292;28;20159;-62
2022/10/23 10:41:34;;;;;;;1.60;0.45;;;;;;;26.50;48.69;98470.94;5018405;28;20060;-62
2022/10/23 10:44:31;;;;;;;2.33;0.30;;;;;;;26.83;47.81;98480.66;5024503;28;20072;-62
2022/10/23 10:47:28;;;;;;;2.45;0.50;;;;;;;26.13;48.95;98470.19;5041039;28;20508;-61
2022/10/23 10:50:14;;;;;;;1.70;0.73;;;;;;;26.92;49.12;98457.66;5020888;28;20037;-61
2022/10/23 10:53:02;;;;;;;1.65;0.75;;;;;;;27.07;47.89;98438.63;5024324;28;20135;-60
2022/10/23 10:55:40;;;;;;;4.00;0.47;;;;;;;26.91;49.71;98431.03;5021380;28;20781;-60
2022/10/23 10:58:18;;;;;;;2.40;0.57;;;;;;;26.78;49.24;98405.84;5042377;28;20022;-60
2022/10/23 11:00:49;;;;;;;3.08;0.75;;;;;;;27.00;49.12;98398.56;5022778;28;20350;-61
2022/10/23 11:03:38;;;;;;;3.15;0.60;;;;;;;27.88;47.61;98412.34;5020898;28;20017;-60
2022/10/23 11:06:10;;;;;;;4.72;0.55;;;;;;;27.81;46.74;98419.53;5023601;28;20029;-62
2022/10/23 11:08:40;;;;;;;0.73;0.35;;;;;;;27.36;47.65;98428.13;5021151;28;20033;-62
2022/10/23 11:11:12;;;;;;;0.73;0.50;;;;;;;26.32;50.45;98437.53;5023456;28;20048;-62
2022/10/23 11:13:41;;;;;;;1.42;0.68;;;;;;;25.10;54.11;98446.63;5027070;28;20053;-60
2022/10/23 11:16:19;;;;;;;1.05;0.80;;;;;;;24.67;55.34;98441.34;5022325;28;20029;-61
2022/10/23 11:18:56;;;;;;;2.43;0.60;;;;;;;24.47;56.11;98442.53;5019357;28;20035;-62
2022/10/23 11:22:05;;;;;;;0.70;0.50;;;;;;;24.14;57.88;98447.22;5025410;28;20031;-60
2022/10/23 11:24:33;;;;;;;;;;;;;;;23.77;60.49;98430.38;5015919;28;20042;-60
2022/10/23 11:27:04;;;;;;;0.80;0.50;;;;;;;23.19;63.18;98422.31;5023122;28;19917;-59
2022/10/23 11:29:56;;;;;;;1.52;0.70;;;;;;;22.92;68.24;98412.69;5041771;28;20566;-61
2022/10/23 11:33:03;;;;;;;1.00;0.60;;;;;;;22.82;70.63;98417.47;5027888;28;20044;-62
2022/10/23 11:35:47;;;;;;;1.25;0.70;;;;;;;22.78;72.67;98400.69;5027158;28;20516;-61
2022/10/23 11:38:12;;;;;;;3.05;0.80;;;;;;;23.05;72.02;98404.81;5038602;28;20025;-62
2022/10/23 11:40:44;;;;;;;1.80;0.60;;;;;;;22.84;70.90;98399.50;5041528;28;20118;-62
2022/10/23 11:43:10;;;;;;;1.02;0.68;;;;;;;22.81;72.42;98389.06;5023290;28;20075;-61
2022/10/23 11:45:38;;;;;;;0.82;0.52;;;;;;;22.86;74.12;98390.94;5023276;28;20029;-61
2022/10/23 11:48:12;;;;;;;2.88;0.77;;;;;;;22.67;74.46;98385.38;5023694;28;20114;-61
2022/10/23 11:50:44;;;;;;;3.85;0.63;;;;;;;22.52;77.84;98384.41;5023850;28;20033;-61